createdAt,value
2023-01-27T00:01:38.420Z,100719.59
2023-01-27T00:04:08.277Z,100734.97
2023-01-27T00:06:36.701Z,100735.72
2023-01-27T00:09:05.486Z,100726.25
2023-01-27T00:11:51.603Z,100731.50
2023-01-27T00:14:20.022Z,100739.81
2023-01-27T00:16:48.403Z,100731.38
2023-01-27T00:19:19.968Z,100736.63
2023-01-27T00:22:06.601Z,100734.06
2023-01-27T00:24:38.229Z,100732.28
2023-01-27T00:27:09.370Z,100733.94
2023-01-27T00:29:40.731Z,100744.94
2023-01-27T00:32:26.790Z,100729.56
2023-01-27T00:34:57.144Z,100744.94
2023-01-27T00:37:25.727Z,100728.06
2023-01-27T00:39:54.987Z,100737.41
2023-01-27T00:42:23.587Z,100732.28
2023-01-27T00:45:10.038Z,100739.81
2023-01-27T00:47:38.539Z,100744.94
2023-01-27T00:50:10.474Z,100738.03
2023-01-27T00:52:39.458Z,100747.38
2023-01-27T00:55:10.840Z,100742.38
2023-01-27T00:57:39.796Z,100738.81
2023-01-27T01:00:12.046Z,100740.59
2023-01-27T01:02:41.065Z,100735.47
2023-01-27T01:05:11.559Z,100740.72
2023-01-27T01:07:40.293Z,100746.75
2023-01-27T01:10:12.015Z,100745.84
2023-01-27T01:12:41.016Z,100755.94
2023-01-27T01:15:10.629Z,100759.31
2023-01-27T01:17:39.323Z,100758.00
2023-01-27T01:20:11.262Z,100761.34
2023-01-27T01:22:39.875Z,100771.59
2023-01-27T01:25:09.504Z,100764.81
2023-01-27T01:27:38.136Z,100778.88
2023-01-27T01:30:09.483Z,100774.00
2023-01-27T01:32:37.952Z,100778.50
2023-01-27T01:35:07.549Z,100774.16
2023-01-27T01:37:37.443Z,100781.06
2023-01-27T01:40:08.452Z,100784.63
2023-01-27T01:42:58.028Z,100785.53
2023-01-27T01:45:52.020Z,100788.84
2023-01-27T01:48:31.546Z,100786.44
2023-01-27T01:51:08.419Z,100798.19
2023-01-27T01:53:43.106Z,100785.28
2023-01-27T01:56:17.862Z,100793.72
2023-01-27T01:58:48.110Z,100788.47
2023-01-27T02:01:19.042Z,100791.78
2023-01-27T02:03:53.562Z,100792.31
2023-01-27T02:06:22.636Z,100798.19
2023-01-27T02:08:53.666Z,100792.97
2023-01-27T02:11:23.777Z,100797.94
2023-01-27T02:13:52.714Z,100796.91
2023-01-27T02:16:21.305Z,100795.13
2023-01-27T02:18:50.521Z,100792.56
2023-01-27T02:21:19.580Z,100801.78
2023-01-27T02:24:02.528Z,100803.31
2023-01-27T02:26:36.530Z,100798.81
2023-01-27T02:29:08.259Z,100791.03
2023-01-27T02:31:37.080Z,100801.75
2023-01-27T02:34:09.885Z,100795.63
2023-01-27T02:36:43.370Z,100794.72
2023-01-27T02:39:16.119Z,100788.72
2023-01-27T02:41:50.299Z,100787.81
2023-01-27T02:44:18.873Z,100785.09
2023-01-27T02:46:47.417Z,100790.22
2023-01-27T02:49:17.530Z,100788.31
2023-01-27T02:51:46.650Z,100786.38
2023-01-27T02:54:15.369Z,100792.91
2023-01-27T02:56:43.754Z,100778.94
2023-01-27T02:59:16.970Z,100790.72
2023-01-27T03:01:45.729Z,100791.34
2023-01-27T03:04:15.846Z,100784.34
2023-01-27T03:06:44.349Z,100781.50
2023-01-27T03:09:12.809Z,100773.72
2023-01-27T03:11:58.837Z,100768.44
2023-01-27T03:14:46.261Z,100771.78
2023-01-27T03:17:33.157Z,100761.41
2023-01-27T03:20:01.524Z,100780.97
2023-01-27T03:22:31.474Z,100775.09
2023-01-27T03:25:01.146Z,100772.66
2023-01-27T03:27:29.969Z,100771.00
2023-01-27T03:30:20.917Z,100779.69
2023-01-27T03:32:59.175Z,100780.59
2023-01-27T03:35:49.378Z,100780.88
2023-01-27T03:38:40.240Z,100788.94
2023-01-27T03:41:26.411Z,100780.38
2023-01-27T03:44:12.501Z,100787.28
2023-01-27T03:46:42.870Z,100781.50
2023-01-27T03:49:11.213Z,100787.94
2023-01-27T03:51:39.940Z,100785.25
2023-01-27T03:54:09.831Z,100787.28
2023-01-27T03:56:38.267Z,100793.31
2023-01-27T03:59:06.774Z,100782.31
2023-01-27T04:01:35.614Z,100789.22
2023-01-27T04:04:23.011Z,100791.78
2023-01-27T04:06:55.214Z,100793.31
2023-01-27T04:09:26.885Z,100803.31
2023-01-27T04:11:55.859Z,100789.47
2023-01-27T04:14:27.078Z,100783.31
2023-01-27T04:16:58.306Z,100790.09
2023-01-27T04:19:29.145Z,100797.13
2023-01-27T04:21:58.974Z,100791.25
2023-01-27T04:24:27.954Z,100783.44
2023-01-27T04:26:59.114Z,100789.59
2023-01-27T04:29:30.791Z,100784.34
2023-01-27T04:31:59.560Z,100789.47
2023-01-27T04:34:30.541Z,100795.47
2023-01-27T04:36:59.260Z,100793.69
2023-01-27T04:39:27.925Z,100794.28
2023-01-27T04:41:57.292Z,100797.91
2023-01-27T04:44:26.266Z,100799.69
2023-01-27T04:46:55.868Z,100799.69
2023-01-27T04:49:26.583Z,100805.72
2023-01-27T04:51:57.093Z,100796.38
2023-01-27T04:54:25.543Z,100811.88
2023-01-27T04:56:59.961Z,100802.66
2023-01-27T04:59:29.276Z,100807.75
2023-01-27T05:01:57.881Z,100814.06
2023-01-27T05:04:27.427Z,100820.94
2023-01-27T05:06:57.450Z,100817.63
2023-01-27T05:09:26.469Z,100817.00
2023-01-27T05:11:54.844Z,100813.69
2023-01-27T05:14:24.434Z,100825.06
2023-01-27T05:16:52.909Z,100820.09
2023-01-27T05:19:21.595Z,100825.97
2023-01-27T05:21:50.094Z,100819.06
2023-01-27T05:24:19.850Z,100815.88
2023-01-27T05:26:48.642Z,100817.78
2023-01-27T05:29:17.070Z,100821.22
2023-01-27T05:31:45.617Z,100826.22
2023-01-27T05:34:14.271Z,100828.78
2023-01-27T05:36:42.975Z,100832.22
2023-01-27T05:39:12.583Z,100834.03
2023-01-27T05:41:42.479Z,100827.13
2023-01-27T05:44:12.944Z,100832.50
2023-01-27T05:46:42.487Z,100831.75
2023-01-27T05:49:11.098Z,100837.75
2023-01-27T05:51:41.046Z,100838.63
2023-01-27T05:54:10.110Z,100843.91
2023-01-27T05:56:39.230Z,100835.31
2023-01-27T08:13:45.777Z,100926.06
2023-01-27T08:16:16.894Z,100931.59
2023-01-27T08:18:45.359Z,100926.97
2023-01-27T08:21:14.796Z,100931.88
2023-01-27T08:23:43.265Z,100931.34
2023-01-27T08:26:12.006Z,100928.31
2023-01-27T08:28:42.043Z,100927.81
2023-01-27T08:31:16.132Z,100932.41
2023-01-27T08:33:46.528Z,100931.03
2023-01-27T08:36:18.201Z,100929.63
2023-01-27T08:38:49.267Z,100943.47
2023-01-27T08:41:20.389Z,100931.41
2023-01-27T08:43:48.916Z,100939.25
2023-01-27T08:46:19.455Z,100932.47
2023-01-27T08:48:49.087Z,100934.22
2023-01-27T08:51:17.940Z,100943.72
2023-01-27T08:53:46.344Z,100947.31
2023-01-27T08:56:16.418Z,100944.91
2023-01-27T08:58:47.315Z,100944.00
2023-01-27T09:01:18.157Z,100943.34
2023-01-27T09:03:46.725Z,100946.78
2023-01-27T09:06:16.004Z,100949.50
2023-01-27T09:09:06.081Z,100952.19
2023-01-27T09:11:35.342Z,100961.66
2023-01-27T09:14:04.537Z,100957.31
2023-01-27T09:16:35.347Z,100971.91
2023-01-27T09:19:04.427Z,100967.56
2023-01-27T09:21:33.243Z,100981.41
2023-01-27T09:24:01.768Z,100973.72
2023-01-27T09:26:30.491Z,100973.72
2023-01-27T09:28:59.576Z,100982.44
2023-01-27T09:31:28.375Z,100988.31
2023-01-27T09:33:58.259Z,100986.66
2023-01-27T09:36:27.263Z,100988.47
2023-01-27T09:38:59.271Z,100985.13
2023-01-27T09:42:06.870Z,100992.81
2023-01-27T09:45:21.710Z,100995.38
2023-01-27T09:48:08.443Z,100998.72
2023-01-27T09:50:45.830Z,100998.06
2023-01-27T09:53:57.232Z,100996.53
2023-01-27T09:56:47.931Z,101001.03
2023-01-27T09:59:36.908Z,100997.69
2023-01-27T10:02:22.429Z,100999.34
2023-01-27T10:05:05.638Z,101001.31
2023-01-27T10:08:20.360Z,101003.13
2023-01-27T10:11:06.071Z,100999.66
2023-01-27T10:13:44.623Z,101002.94
2023-01-27T10:16:29.563Z,101010.81
2023-01-27T10:19:23.485Z,101009.16
2023-01-27T10:22:02.771Z,101010.94
2023-01-27T10:24:48.925Z,101009.41
2023-01-27T10:27:22.236Z,101016.31
2023-01-27T10:29:58.452Z,101005.31
2023-01-27T10:32:30.309Z,101008.13
2023-01-27T10:35:17.056Z,101007.50
2023-01-27T10:37:58.836Z,101005.69
2023-01-27T10:40:40.772Z,101000.72
2023-01-27T10:43:16.817Z,101010.44
2023-01-27T10:45:55.146Z,101001.09
2023-01-27T10:48:43.733Z,101004.69
2023-01-27T10:51:15.967Z,101006.34
2023-01-27T10:53:57.481Z,101004.03
2023-01-27T10:56:35.894Z,101009.44
2023-01-27T10:59:12.516Z,101001.84
2023-01-27T11:01:47.655Z,101003.78
2023-01-27T11:04:22.120Z,101004.69
2023-01-27T11:06:55.202Z,101002.13
2023-01-27T11:09:30.621Z,101001.22
2023-01-27T11:12:05.305Z,100986.59
2023-01-27T11:14:42.797Z,100998.66
2023-01-27T11:17:21.437Z,100996.09
2023-01-27T11:19:59.564Z,100991.72
2023-01-27T11:22:36.855Z,100992.41
2023-01-27T11:25:18.343Z,100991.59
2023-01-27T11:28:03.747Z,100990.97
2023-01-27T11:30:38.354Z,100985.84
2023-01-27T11:33:19.053Z,100985.09
2023-01-27T11:35:49.168Z,100995.47
2023-01-27T11:38:22.326Z,100991.13
2023-01-27T11:40:53.174Z,100993.53
2023-01-27T11:43:27.215Z,100989.16
2023-01-27T11:46:03.058Z,100988.41
2023-01-27T11:48:41.181Z,100989.44
2023-01-27T11:51:21.817Z,100991.13
2023-01-27T11:54:03.704Z,100991.13
2023-01-27T11:56:34.963Z,100988.41
2023-01-27T11:59:09.135Z,100986.88
2023-01-27T12:01:47.865Z,100980.97
2023-01-27T12:04:25.285Z,100976.63
2023-01-27T12:07:00.650Z,100989.16
2023-01-27T12:09:37.815Z,100978.69
2023-01-27T12:12:26.580Z,100973.66
2023-01-27T12:14:58.688Z,100968.66
2023-01-27T12:17:32.793Z,100960.22
2023-01-27T12:20:07.492Z,100963.81
2023-01-27T12:22:40.743Z,100961.25
2023-01-27T12:25:19.778Z,100961.34
2023-01-27T12:27:54.098Z,100959.69
2023-01-27T12:30:28.322Z,100965.72
2023-01-27T12:32:59.546Z,100951.88
2023-01-27T12:35:33.801Z,100954.44
2023-01-27T12:38:07.052Z,100957.13
2023-01-27T12:40:36.268Z,100955.59
2023-01-27T12:43:13.026Z,100958.28
2023-01-27T12:45:44.283Z,100959.97
2023-01-27T12:48:22.344Z,100956.09
2023-01-27T12:51:06.602Z,100954.44
2023-01-27T12:53:35.103Z,100957.91
2023-01-27T12:56:13.347Z,100949.44
2023-01-27T12:58:44.976Z,100948.53
2023-01-27T13:01:31.010Z,100951.50
2023-01-27T13:04:02.500Z,100953.38
2023-01-27T13:06:43.555Z,100949.28
2023-01-27T13:09:33.306Z,100952.00
2023-01-27T13:12:06.576Z,100950.34
2023-01-27T13:14:41.502Z,100948.78
2023-01-27T13:17:31.053Z,100963.41
2023-01-27T13:20:04.859Z,100957.38
2023-01-27T13:22:42.848Z,100961.72
2023-01-27T13:25:20.791Z,100961.72
2023-01-27T13:27:52.183Z,100965.19
2023-01-27T13:30:28.947Z,100967.91
2023-01-27T13:33:05.883Z,100967.00
2023-01-27T13:35:38.772Z,100976.59
2023-01-27T13:38:17.349Z,100969.66
2023-01-27T13:40:47.906Z,100974.41
2023-01-27T13:43:23.683Z,100976.09
2023-01-27T13:45:56.618Z,100973.41
2023-01-27T13:48:33.481Z,100986.09
2023-01-27T13:51:09.901Z,100983.25
2023-01-27T13:53:39.858Z,100980.47
2023-01-27T13:56:23.709Z,100983.03
2023-01-27T13:59:02.943Z,100992.25
2023-01-27T14:01:46.765Z,100989.59
2023-01-27T14:04:42.917Z,101000.59
2023-01-27T14:07:22.984Z,100985.06
2023-01-27T14:10:08.222Z,100995.34
2023-01-27T14:12:57.999Z,101006.34
2023-01-27T14:15:34.143Z,100996.63
2023-01-27T14:18:15.519Z,100997.66
2023-01-27T14:21:04.624Z,101000.22
2023-01-27T14:23:48.176Z,100999.31
2023-01-27T14:26:35.991Z,100999.31
2023-01-27T14:29:16.577Z,100994.19
2023-01-27T14:31:54.725Z,101003.03
2023-01-27T14:34:55.318Z,100998.81
2023-01-27T14:37:31.689Z,100996.38
2023-01-27T14:40:18.334Z,101001.59
2023-01-27T14:43:06.838Z,100990.47
2023-01-27T14:45:38.881Z,100993.03
2023-01-27T14:48:23.704Z,100994.06
2023-01-27T14:51:07.084Z,100993.16
2023-01-27T14:53:55.966Z,100993.03
2023-01-27T14:56:38.283Z,100996.38
2023-01-27T14:59:31.051Z,100996.38
2023-01-27T15:02:08.732Z,101000.75
2023-01-27T15:04:42.274Z,101007.53
2023-01-27T15:07:17.964Z,101005.06
2023-01-27T15:10:19.690Z,101017.91
2023-01-27T15:13:17.674Z,101007.00
2023-01-27T15:16:25.618Z,101018.16
2023-01-27T15:19:24.911Z,101023.31
2023-01-27T15:22:44.356Z,101024.06
2023-01-27T15:25:34.614Z,101027.66
2023-01-27T15:28:05.863Z,101031.91
2023-01-27T15:30:38.795Z,101034.56
2023-01-27T15:33:48.066Z,101032.78
2023-01-27T15:36:34.658Z,101029.97
2023-01-27T15:39:25.949Z,101037.41
2023-01-27T15:42:13.232Z,101041.63
2023-01-27T15:45:01.827Z,101041.50
2023-01-27T15:47:35.175Z,101049.94
2023-01-27T15:50:20.844Z,101043.81
2023-01-27T15:52:51.021Z,101050.59
2023-01-27T15:55:29.346Z,101051.50
2023-01-27T15:58:09.115Z,101050.47
2023-01-27T16:00:40.500Z,101059.69
2023-01-27T16:03:28.540Z,101059.06
2023-01-27T16:06:01.910Z,101055.59
2023-01-27T16:08:34.122Z,101064.56
2023-01-27T16:11:37.538Z,101063.81
2023-01-27T16:14:39.870Z,101065.63
2023-01-27T16:17:26.568Z,101069.19
2023-01-27T16:20:15.607Z,101069.19
2023-01-27T16:22:45.703Z,101068.28
2023-01-27T16:25:26.289Z,101076.13
2023-01-27T16:28:01.920Z,101074.22
2023-01-27T16:30:37.166Z,101075.97
2023-01-27T16:33:09.951Z,101076.88
2023-01-27T16:35:47.276Z,101076.13
2023-01-27T16:38:27.077Z,101080.50
2023-01-27T16:41:01.519Z,101082.00
2023-01-27T16:43:35.482Z,101078.44
2023-01-27T16:46:05.481Z,101089.31
2023-01-27T16:48:40.510Z,101092.78
2023-01-27T16:51:15.477Z,101092.78
2023-01-27T16:53:48.132Z,101100.34
2023-01-27T16:56:25.853Z,101107.94
2023-01-27T16:59:03.067Z,101104.19
2023-01-27T17:01:42.800Z,101108.31
2023-01-27T17:04:20.715Z,101103.78
2023-01-27T17:06:50.222Z,101105.44
2023-01-27T17:09:24.977Z,101108.69
2023-01-27T17:11:55.525Z,101111.25
2023-01-27T17:14:32.123Z,101113.81
2023-01-27T17:17:05.331Z,101111.09
2023-01-27T17:19:36.472Z,101113.00
2023-01-27T17:22:10.539Z,101113.00
2023-01-27T17:24:45.204Z,101111.34
2023-01-27T17:27:25.915Z,101123.25
2023-01-27T17:30:02.292Z,101124.06
2023-01-27T17:32:36.815Z,101130.06
2023-01-27T17:35:09.758Z,101135.47
2023-01-27T17:37:44.106Z,101128.69
2023-01-27T17:40:18.199Z,101126.25
2023-01-27T17:42:47.568Z,101138.16
2023-01-27T17:45:25.573Z,101133.03
2023-01-27T17:47:55.571Z,101134.81
2023-01-27T17:50:27.253Z,101127.13
2023-01-27T17:52:57.179Z,101133.03
2023-01-27T17:55:28.152Z,101132.13
2023-01-27T17:58:07.179Z,101132.13
2023-01-27T18:00:40.240Z,101136.38
2023-01-27T18:03:15.652Z,101133.81
2023-01-27T18:05:46.582Z,101125.22
2023-01-27T18:08:15.109Z,101133.81
2023-01-27T18:10:45.159Z,101131.09
2023-01-27T18:13:37.896Z,101129.44
2023-01-27T18:16:16.505Z,101129.56
2023-01-27T18:18:47.770Z,101133.66
2023-01-27T18:21:19.456Z,101136.88
2023-01-27T18:23:51.272Z,101139.31
2023-01-27T18:26:24.448Z,101139.16
2023-01-27T18:28:57.404Z,101148.25
2023-01-27T18:31:30.361Z,101150.69
2023-01-27T18:34:13.565Z,101148.88
2023-01-27T18:36:54.722Z,101156.31
2023-01-27T18:39:39.304Z,101157.84
2023-01-27T18:42:16.020Z,101163.56
2023-01-27T18:44:44.963Z,101167.56
2023-01-27T18:47:31.927Z,101177.31
2023-01-27T18:50:19.464Z,101179.09
2023-01-27T18:52:48.609Z,101183.47
2023-01-27T18:55:20.300Z,101176.19
2023-01-27T18:57:50.714Z,101180.69
2023-01-27T19:00:22.676Z,101179.94
2023-01-27T19:02:54.325Z,101180.03
2023-01-27T19:05:27.460Z,101175.06
2023-01-27T19:07:57.664Z,101198.63
2023-01-27T19:10:29.491Z,101174.38
2023-01-27T19:13:00.775Z,101181.06
2023-01-27T19:15:32.106Z,101184.50
2023-01-27T19:18:10.506Z,101187.06
2023-01-27T19:20:40.688Z,101186.19
2023-01-27T19:23:14.243Z,101188.84
2023-01-27T19:25:43.401Z,101194.78
2023-01-27T19:28:17.893Z,101199.09
2023-01-27T19:30:47.301Z,101199.09
2023-01-27T19:33:21.709Z,101188.84
2023-01-27T19:35:55.651Z,101182.84
2023-01-27T19:38:24.989Z,101193.88
2023-01-27T19:40:53.880Z,101199.59
2023-01-27T19:43:22.751Z,101196.66
2023-01-27T19:45:52.900Z,101198.16
2023-01-27T19:48:24.187Z,101198.31
2023-01-27T19:50:54.750Z,101197.56
2023-01-27T19:53:23.329Z,101205.09
2023-01-27T19:55:54.260Z,101210.22
2023-01-27T19:58:26.082Z,101208.56
2023-01-27T20:00:55.849Z,101210.63
2023-01-27T20:03:25.003Z,101215.91
2023-01-27T20:05:54.832Z,101213.47
2023-01-27T20:08:23.999Z,101209.25
2023-01-27T20:10:52.839Z,101205.78
2023-01-27T20:13:22.151Z,101217.03
2023-01-27T20:15:50.800Z,101218.59
2023-01-27T20:18:21.478Z,101210.78
2023-01-27T20:20:51.306Z,101214.75
2023-01-27T20:23:21.481Z,101210.63
2023-01-27T20:25:50.064Z,101215.75
2023-01-27T20:28:18.420Z,101216.03
2023-01-27T20:30:46.981Z,101216.19
2023-01-27T20:33:15.529Z,101213.72
2023-01-27T20:35:44.040Z,101214.00
2023-01-27T20:38:12.429Z,101222.72
2023-01-27T20:40:42.544Z,101221.50
2023-01-27T20:43:11.057Z,101217.38
2023-01-27T20:45:40.863Z,101216.63
2023-01-27T20:48:12.406Z,101220.84
2023-01-27T20:50:40.842Z,101230.19
2023-01-27T20:53:09.521Z,101226.88
2023-01-27T20:55:38.384Z,101233.03
2023-01-27T20:58:08.381Z,101223.81
2023-01-27T21:00:36.810Z,101222.28
2023-01-27T21:03:05.541Z,101218.19
2023-01-27T21:05:34.415Z,101233.09
2023-01-27T21:08:02.836Z,101234.59
2023-01-27T21:10:31.367Z,101231.13
2023-01-27T21:12:59.871Z,101228.47
2023-01-27T21:15:29.687Z,101230.13
2023-01-27T21:17:58.249Z,101229.06
2023-01-27T21:20:27.250Z,101224.84
2023-01-27T21:22:55.816Z,101222.28
2023-01-27T21:25:24.345Z,101235.88
2023-01-27T21:27:53.090Z,101234.06
2023-01-27T21:30:21.645Z,101227.91
2023-01-27T21:32:51.696Z,101216.63
2023-01-27T21:35:20.307Z,101230.94
2023-01-27T21:37:49.138Z,101225.81
2023-01-27T21:40:18.115Z,101233.41
2023-01-27T21:43:04.200Z,101235.06
2023-01-27T21:45:32.654Z,101229.66
2023-01-27T21:48:02.895Z,101221.19
2023-01-27T21:50:31.417Z,101224.81
2023-01-27T21:53:00.198Z,101223.25
2023-01-27T21:55:31.181Z,101213.81
2023-01-27T21:57:59.602Z,101224.81
2023-01-27T22:00:29.974Z,101214.56
2023-01-27T22:03:01.967Z,101212.00
2023-01-27T22:05:32.842Z,101213.00
2023-01-27T22:08:02.167Z,101220.84
2023-01-27T22:10:31.816Z,101220.22
2023-01-27T22:13:03.578Z,101225.22
2023-01-27T22:15:32.971Z,101219.03
2023-01-27T22:18:03.245Z,101207.78
2023-01-27T22:20:31.634Z,101216.06
2023-01-27T22:23:00.224Z,101212.59
2023-01-27T22:25:28.850Z,101212.75
2023-01-27T22:27:57.567Z,101213.50
2023-01-27T22:30:26.016Z,101221.19
2023-01-27T22:32:54.480Z,101221.50
2023-01-27T22:35:24.465Z,101215.56
2023-01-27T22:37:53.181Z,101219.69
2023-01-27T22:40:21.737Z,101221.97
2023-01-27T22:42:50.822Z,101214.00
2023-01-27T22:45:19.440Z,101214.91
2023-01-27T22:47:49.463Z,101218.84
2023-01-27T22:50:19.060Z,101219.75
2023-01-27T22:52:48.853Z,101211.16
2023-01-27T22:55:18.046Z,101217.94
2023-01-27T22:57:47.866Z,101219.50
2023-01-27T23:00:17.884Z,101221.91
2023-01-27T23:02:46.499Z,101225.25
2023-01-27T23:05:15.231Z,101230.38
2023-01-27T23:07:44.096Z,101220.75
2023-01-27T23:10:14.282Z,101223.78
2023-01-27T23:12:43.007Z,101229.44
2023-01-27T23:15:13.376Z,101230.31
2023-01-27T23:17:41.985Z,101227.75
2023-01-27T23:20:12.530Z,101224.44
2023-01-27T23:22:41.155Z,101235.47
2023-01-27T23:25:10.754Z,101235.47
2023-01-27T23:27:42.169Z,101231.38
2023-01-27T23:30:12.865Z,101237.41
2023-01-27T23:32:41.385Z,101239.19
2023-01-27T23:35:10.696Z,101236.63
2023-01-27T23:37:39.671Z,101235.25
2023-01-27T23:40:10.069Z,101239.13
2023-01-27T23:42:40.071Z,101241.81
2023-01-27T23:45:10.047Z,101240.00
2023-01-27T23:47:38.738Z,101237.31
2023-01-27T23:50:08.103Z,101238.06
2023-01-27T23:52:36.842Z,101238.06
2023-01-27T23:55:06.150Z,101233.97
2023-01-27T23:57:34.955Z,101239.25
